Time;durP1;ratioP1;P1;durP2;ratioP2;P2;SDS_P1;SDS_P2;PMS_P1;PMS_P2;Temp;Humidity;BMP_temperature;BMP_pressure;BME280_temperature;BME280_humidity;BME280_pressure;Samples;Min_cycle;Max_cycle;Signal;HPM_P1;HPM_P2
2021/06/14 00:01:09;;;;;;;13.88;7.95;;;18.20;97.90;;;;;;5020676;28;20531;-68
2021/06/14 00:03:35;;;;;;;14.88;8.77;;;18.20;97.80;;;;;;5018804;28;20047;-69
2021/06/14 00:06:01;;;;;;;16.33;7.65;;;18.20;98.00;;;;;;5017113;28;20068;-68
2021/06/14 00:08:27;;;;;;;12.90;7.68;;;18.20;98.00;;;;;;5020879;28;20034;-69
2021/06/14 00:10:55;;;;;;;12.95;7.78;;;18.20;98.10;;;;;;5015880;28;20517;-68
2021/06/14 00:13:22;;;;;;;10.73;7.95;;;18.10;98.10;;;;;;5016476;28;20052;-70
2021/06/14 00:15:48;;;;;;;15.00;7.93;;;18.00;98.30;;;;;;5022539;28;20038;-69
2021/06/14 00:18:15;;;;;;;18.02;9.02;;;18.00;98.30;;;;;;5023658;28;20021;-68
2021/06/14 00:20:44;;;;;;;14.80;7.80;;;18.00;98.20;;;;;;5019963;28;20057;-68
2021/06/14 00:23:11;;;;;;;13.25;7.85;;;17.90;98.20;;;;;;5020507;28;20032;-68
2021/06/14 00:25:37;;;;;;;19.23;8.50;;;17.90;98.40;;;;;;5015656;28;20108;-69
2021/06/14 00:28:04;;;;;;;15.60;8.15;;;17.90;98.30;;;;;;5016692;28;20026;-71
2021/06/14 00:30:41;;;;;;;16.90;7.70;;;17.80;98.50;;;;;;5018462;28;20087;-69
2021/06/14 00:33:09;;;;;;;18.13;9.02;;;17.90;98.40;;;;;;5018215;28;20053;-69
2021/06/14 00:35:35;;;;;;;17.17;8.48;;;17.80;98.20;;;;;;5021039;28;20026;-69
2021/06/14 00:38:00;;;;;;;19.02;8.82;;;17.70;98.50;;;;;;5016745;28;21281;-68
2021/06/14 00:40:26;;;;;;;15.80;9.18;;;17.70;98.60;;;;;;5020089;28;20038;-68
2021/06/14 00:42:53;;;;;;;17.02;8.73;;;17.70;98.60;;;;;;5018738;28;20022;-68
2021/06/14 00:45:28;;;;;;;16.30;8.25;;;17.70;98.80;;;;;;5023432;28;20100;-68
2021/06/14 00:47:53;;;;;;;13.75;8.30;;;17.70;98.70;;;;;;5013981;28;20025;-68
2021/06/14 00:50:31;;;;;;;11.77;7.78;;;17.70;98.70;;;;;;5025893;28;20096;-68
2021/06/14 00:52:56;;;;;;;16.58;8.05;;;17.70;98.80;;;;;;5021748;28;20026;-68
2021/06/14 00:55:22;;;;;;;17.90;8.57;;;17.80;98.90;;;;;;5018783;28;20029;-70
2021/06/14 00:57:48;;;;;;;16.05;8.32;;;17.70;98.80;;;;;;5017113;28;20049;-69
2021/06/14 01:00:14;;;;;;;12.63;7.97;;;17.70;98.90;;;;;;5018823;28;20059;-73
2021/06/14 01:02:40;;;;;;;14.55;8.60;;;17.70;99.00;;;;;;5018754;28;20475;-71
2021/06/14 01:05:10;;;;;;;12.88;8.02;;;17.60;99.00;;;;;;5016126;28;20029;-68
2021/06/14 01:07:37;;;;;;;14.95;8.70;;;17.50;98.90;;;;;;5017745;28;20386;-69
2021/06/14 01:10:04;;;;;;;15.25;9.13;;;17.50;99.10;;;;;;5013688;28;20085;-68
2021/06/14 01:12:35;;;;;;;16.98;9.35;;;17.30;99.20;;;;;;5016447;28;20100;-68
2021/06/14 01:15:14;;;;;;;18.42;9.95;;;17.30;99.10;;;;;;5018875;28;20168;-68
2021/06/14 01:17:55;;;;;;;19.65;10.30;;;17.30;99.40;;;;;;5016458;28;20108;-68
2021/06/14 01:20:39;;;;;;;22.25;10.95;;;17.30;99.40;;;;;;5019900;28;20037;-69
2021/06/14 01:23:34;;;;;;;20.45;10.00;;;17.30;99.40;;;;;;5017342;28;20099;-68
2021/06/14 01:26:09;;;;;;;19.75;10.20;;;17.30;99.50;;;;;;5017382;28;20378;-68
2021/06/14 01:28:36;;;;;;;17.38;9.43;;;17.30;99.40;;;;;;5020302;28;20033;-68
2021/06/14 01:31:03;;;;;;;19.05;10.68;;;17.30;99.40;;;;;;5016712;28;20026;-68
2021/06/14 01:33:30;;;;;;;21.25;9.65;;;17.20;99.40;;;;;;5018273;28;20425;-68
2021/06/14 01:36:05;;;;;;;13.45;9.55;;;17.10;99.50;;;;;;5021180;28;20030;-68
2021/06/14 01:38:32;;;;;;;15.27;8.85;;;17.10;99.50;;;;;;5021328;28;20108;-68
2021/06/14 01:41:10;;;;;;;20.25;10.02;;;17.10;99.60;;;;;;5018344;28;20554;-68
2021/06/14 01:43:39;;;;;;;19.88;9.75;;;17.10;99.50;;;;;;5017858;28;20033;-71
2021/06/14 01:46:29;;;;;;;16.83;9.18;;;17.00;99.60;;;;;;5024786;28;20018;-68
2021/06/14 01:48:56;;;;;;;19.17;10.70;;;17.00;99.70;;;;;;5015418;28;20057;-68
2021/06/14 01:51:25;;;;;;;11.45;9.02;;;16.90;99.80;;;;;;5019042;28;20041;-68
2021/06/14 01:54:05;;;;;;;18.98;10.07;;;16.90;99.80;;;;;;5014948;28;20025;-68
2021/06/14 01:56:37;;;;;;;16.70;9.55;;;16.90;99.90;;;;;;5020702;28;20045;-68
2021/06/14 01:59:05;;;;;;;18.45;9.10;;;16.90;99.90;;;;;;5023986;28;20022;-68
2021/06/14 02:01:32;;;;;;;14.55;9.02;;;16.90;99.90;;;;;;5022795;28;20022;-69
2021/06/14 02:04:01;;;;;;;17.98;10.10;;;16.90;99.90;;;;;;5017707;28;20026;-68
2021/06/14 02:06:31;;;;;;;22.08;10.75;;;16.80;99.90;;;;;;5016018;28;20033;-68
2021/06/14 02:09:00;;;;;;;16.48;10.35;;;16.70;99.90;;;;;;5015338;28;20030;-68
2021/06/14 02:11:26;;;;;;;15.07;9.73;;;16.60;99.90;;;;;;5018994;28;20036;-68
2021/06/14 02:13:53;;;;;;;18.30;9.77;;;16.60;99.90;;;;;;5017802;28;20014;-68
2021/06/14 02:16:19;;;;;;;15.88;10.23;;;16.50;99.90;;;;;;5015954;28;20044;-68
2021/06/14 02:18:45;;;;;;;15.15;8.68;;;16.50;99.90;;;;;;5018750;28;20491;-68
2021/06/14 02:21:12;;;;;;;20.55;9.98;;;16.50;99.90;;;;;;5013467;28;20033;-68
2021/06/14 02:23:37;;;;;;;12.43;9.30;;;16.50;99.90;;;;;;5015232;28;20029;-68
2021/06/14 02:26:03;;;;;;;15.32;9.57;;;16.50;99.90;;;;;;5015514;28;20048;-68
2021/06/14 02:28:29;;;;;;;13.88;9.15;;;16.50;99.90;;;;;;5017121;28;20037;-70
2021/06/14 02:30:54;;;;;;;13.27;9.10;;;16.40;99.90;;;;;;5012375;28;20030;-68
2021/06/14 02:33:21;;;;;;;15.50;9.55;;;16.40;99.90;;;;;;5016638;28;20040;-68
2021/06/14 02:35:46;;;;;;;17.15;10.00;;;16.40;99.90;;;;;;5023619;28;20076;-67
2021/06/14 02:38:12;;;;;;;18.17;10.18;;;16.30;99.90;;;;;;5015696;28;20609;-69
2021/06/14 02:40:41;;;;;;;15.38;9.40;;;16.30;99.90;;;;;;5018981;28;20029;-70
2021/06/14 02:43:09;;;;;;;16.48;9.98;;;16.20;99.90;;;;;;5014655;28;20030;-70
2021/06/14 02:45:36;;;;;;;18.65;10.07;;;16.10;99.90;;;;;;5017775;28;20064;-70
2021/06/14 02:48:05;;;;;;;13.88;10.25;;;16.10;99.90;;;;;;5013964;28;20471;-69
2021/06/14 02:50:35;;;;;;;13.77;9.32;;;16.20;99.90;;;;;;5017116;28;20379;-70
2021/06/14 02:53:07;;;;;;;16.15;9.40;;;16.10;99.90;;;;;;5014175;28;20132;-70
2021/06/14 02:55:38;;;;;;;14.25;9.20;;;16.20;99.90;;;;;;5014595;28;20128;-69
2021/06/14 02:58:05;;;;;;;14.30;9.25;;;16.20;99.90;;;;;;5016477;28;20033;-69
2021/06/14 03:00:32;;;;;;;14.07;10.02;;;16.20;99.90;;;;;;5016366;28;20025;-69
2021/06/14 03:03:00;;;;;;;12.50;10.18;;;16.30;99.90;;;;;;5015933;28;20115;-69
2021/06/14 03:05:28;;;;;;;16.13;10.73;;;16.20;99.90;;;;;;5014148;28;20022;-69
2021/06/14 03:07:57;;;;;;;18.30;10.23;;;16.10;99.90;;;;;;5014118;28;20482;-69
2021/06/14 03:10:23;;;;;;;14.05;11.05;;;16.00;99.90;;;;;;5017175;28;20033;-69
2021/06/14 03:12:55;;;;;;;16.23;10.07;;;16.00;99.90;;;;;;5013487;28;20375;-69
2021/06/14 03:15:23;;;;;;;13.50;10.23;;;16.00;99.90;;;;;;5013638;28;20430;-69
2021/06/14 03:17:51;;;;;;;17.40;10.52;;;16.00;99.90;;;;;;5018011;28;20029;-69
2021/06/14 03:20:18;;;;;;;15.60;9.85;;;15.90;99.90;;;;;;5019520;28;20027;-69
2021/06/14 03:22:44;;;;;;;14.40;9.68;;;15.90;99.90;;;;;;5017409;28;20030;-69
2021/06/14 03:25:10;;;;;;;15.52;10.75;;;15.90;99.90;;;;;;5013215;28;20030;-69
2021/06/14 03:27:37;;;;;;;14.18;10.85;;;15.80;99.90;;;;;;5016940;28;20116;-69
2021/06/14 03:30:04;;;;;;;14.75;10.63;;;15.80;99.90;;;;;;5012280;28;20100;-69
2021/06/14 03:32:31;;;;;;;15.10;10.38;;;15.80;99.90;;;;;;5017548;28;20030;-69
2021/06/14 03:34:57;;;;;;;15.15;10.20;;;15.80;99.90;;;;;;5013133;28;20041;-69
2021/06/14 03:37:23;;;;;;;20.33;10.82;;;15.70;99.90;;;;;;5011005;28;20117;-69
2021/06/14 03:39:48;;;;;;;15.50;9.23;;;15.80;99.90;;;;;;5015060;28;77944;-69
2021/06/14 03:42:18;;;;;;;16.25;9.65;;;15.80;99.90;;;;;;5013634;28;20029;-69
2021/06/14 03:44:44;;;;;;;13.50;9.45;;;15.90;99.90;;;;;;5017981;28;20029;-69
2021/06/14 03:47:10;;;;;;;11.88;8.80;;;15.90;99.90;;;;;;5014898;28;20096;-69
2021/06/14 03:49:36;;;;;;;15.98;9.60;;;15.90;99.90;;;;;;5015355;28;20042;-69
2021/06/14 03:52:02;;;;;;;14.73;9.27;;;15.90;99.90;;;;;;5019559;28;20053;-69
2021/06/14 03:54:27;;;;;;;16.98;11.10;;;15.80;99.90;;;;;;5014615;28;20037;-69
2021/06/14 03:56:53;;;;;;;16.92;11.23;;;15.70;99.90;;;;;;5015609;28;20022;-69
2021/06/14 03:59:19;;;;;;;18.95;10.90;;;15.60;99.90;;;;;;5015611;28;20030;-69
2021/06/14 04:01:44;;;;;;;15.13;11.30;;;15.70;99.90;;;;;;5017203;28;20022;-69
2021/06/14 04:04:40;;;;;;;16.35;11.02;;;15.70;99.90;;;;;;5015769;28;20038;-69
2021/06/14 04:06:58;;;;;;;21.80;11.23;;;15.70;99.90;;;;;;5015024;28;20117;-69
2021/06/14 04:09:24;;;;;;;16.17;11.20;;;15.60;99.90;;;;;;5016751;28;20121;-69
2021/06/14 04:11:49;;;;;;;19.63;11.27;;;15.70;99.90;;;;;;5024094;28;20160;-69
2021/06/14 04:14:15;;;;;;;16.85;10.68;;;15.70;99.90;;;;;;5020770;28;20051;-69
2021/06/14 04:16:40;;;;;;;13.75;10.23;;;15.70;99.90;;;;;;5016593;28;20449;-69
2021/06/14 04:19:06;;;;;;;15.18;11.65;;;15.70;99.90;;;;;;5026977;28;20097;-69
2021/06/14 04:21:32;;;;;;;22.55;13.25;;;15.70;99.90;;;;;;5016688;28;20088;-69
2021/06/14 04:23:57;;;;;;;19.20;11.40;;;15.70;99.90;;;;;;5020840;28;20497;-69
2021/06/14 04:26:23;;;;;;;16.17;10.25;;;15.70;99.90;;;;;;5018200;28;20101;-69
2021/06/14 04:28:49;;;;;;;18.30;11.00;;;15.70;99.90;;;;;;5020024;28;20044;-69
2021/06/14 04:31:14;;;;;;;17.85;11.23;;;15.70;99.90;;;;;;5024951;28;20031;-69
2021/06/14 04:33:40;;;;;;;14.88;10.77;;;15.70;99.90;;;;;;5017965;28;20083;-69
2021/06/14 04:36:06;;;;;;;17.13;10.80;;;15.70;99.90;;;;;;5022589;28;20065;-69
2021/06/14 04:38:33;;;;;;;20.08;10.07;;;15.70;99.90;;;;;;5019340;28;20030;-69
2021/06/14 04:40:58;;;;;;;15.85;9.95;;;15.70;99.90;;;;;;5023344;28;20054;-69
2021/06/14 04:43:24;;;;;;;16.92;11.00;;;15.80;99.90;;;;;;5020027;28;20083;-69
2021/06/14 04:45:50;;;;;;;24.35;11.93;;;15.80;99.90;;;;;;5017829;28;20466;-69
2021/06/14 04:48:15;;;;;;;21.05;11.20;;;15.80;99.90;;;;;;5018070;28;20029;-69
2021/06/14 04:50:41;;;;;;;16.55;9.73;;;15.70;99.90;;;;;;5018187;28;20025;-69
2021/06/14 04:53:06;;;;;;;19.45;11.48;;;15.80;99.90;;;;;;5019861;28;20082;-69
2021/06/14 04:55:32;;;;;;;18.63;10.73;;;15.80;99.90;;;;;;5015660;28;20029;-69
2021/06/14 04:57:57;;;;;;;16.50;9.25;;;15.90;99.90;;;;;;5022170;28;20523;-69
2021/06/14 05:00:23;;;;;;;16.67;11.00;;;15.90;99.90;;;;;;5023876;28;20022;-69
2021/06/14 05:02:50;;;;;;;16.23;9.98;;;15.90;99.90;;;;;;5017039;28;20037;-69
2021/06/14 05:05:16;;;;;;;13.63;9.80;;;15.90;99.90;;;;;;5018634;28;20022;-69
2021/06/14 05:07:42;;;;;;;16.33;9.55;;;15.90;99.90;;;;;;5013841;28;20100;-69
2021/06/14 05:10:08;;;;;;;14.52;10.10;;;16.00;99.90;;;;;;5019441;28;20044;-69
2021/06/14 05:12:33;;;;;;;16.63;9.88;;;16.00;99.90;;;;;;5017200;28;20466;-69
2021/06/14 05:14:59;;;;;;;15.80;9.13;;;16.00;99.90;;;;;;5022377;28;20029;-69
2021/06/14 05:17:25;;;;;;;17.80;10.40;;;16.00;99.90;;;;;;5018439;28;20494;-71
2021/06/14 05:19:50;;;;;;;16.45;10.88;;;16.10;99.90;;;;;;5018242;28;20156;-69
2021/06/14 05:22:16;;;;;;;14.43;10.32;;;16.10;99.90;;;;;;5016749;28;20068;-69
2021/06/14 05:24:42;;;;;;;15.10;10.07;;;16.10;99.90;;;;;;5025530;28;20462;-69
2021/06/14 05:27:08;;;;;;;16.80;10.95;;;16.10;99.90;;;;;;5019719;28;20075;-69
2021/06/14 05:29:34;;;;;;;17.60;11.25;;;16.10;99.90;;;;;;5018892;28;20045;-69
2021/06/14 05:31:59;;;;;;;20.02;11.50;;;16.20;99.90;;;;;;5018458;28;20030;-69
2021/06/14 05:34:25;;;;;;;24.23;13.52;;;16.20;99.90;;;;;;5014587;28;20036;-69
2021/06/14 05:36:51;;;;;;;17.65;11.00;;;16.20;99.90;;;;;;5017660;28;20056;-69
2021/06/14 05:39:16;;;;;;;21.98;12.63;;;16.20;99.90;;;;;;5024192;28;20067;-70
2021/06/14 05:41:42;;;;;;;13.95;10.70;;;16.20;99.90;;;;;;5014769;28;20467;-69
2021/06/14 05:44:08;;;;;;;20.33;11.88;;;16.30;99.90;;;;;;5014705;28;20030;-69
2021/06/14 05:46:34;;;;;;;22.15;12.43;;;16.30;99.90;;;;;;5016495;28;20029;-69
2021/06/14 05:49:02;;;;;;;28.02;12.02;;;16.40;99.90;;;;;;5014493;28;20034;-70
2021/06/14 05:51:28;;;;;;;19.17;11.13;;;16.30;99.90;;;;;;5014547;28;20468;-70
2021/06/14 05:53:53;;;;;;;26.02;13.98;;;16.40;99.90;;;;;;5019265;28;20113;-70
2021/06/14 05:56:19;;;;;;;19.60;11.73;;;16.50;99.90;;;;;;5018506;28;20160;-70
2021/06/14 05:58:45;;;;;;;22.52;11.80;;;16.60;99.90;;;;;;5014926;28;20022;-70
2021/06/14 06:01:10;;;;;;;21.95;12.23;;;16.70;99.90;;;;;;5022867;28;20033;-70
2021/06/14 06:03:36;;;;;;;21.05;13.05;;;16.70;99.90;;;;;;5015965;28;20052;-70
2021/06/14 06:06:01;;;;;;;21.05;13.85;;;16.80;99.90;;;;;;5014701;28;20026;-70
2021/06/14 06:08:27;;;;;;;22.20;13.18;;;16.80;99.90;;;;;;5013428;28;20084;-70
2021/06/14 06:10:52;;;;;;;27.45;13.43;;;16.90;99.90;;;;;;5015233;28;20030;-70
2021/06/14 06:13:18;;;;;;;23.75;13.77;;;16.90;99.90;;;;;;5017280;28;20381;-70
2021/06/14 06:15:44;;;;;;;23.85;14.07;;;16.90;99.90;;;;;;5014310;28;20038;-70
2021/06/14 06:18:10;;;;;;;25.20;14.18;;;17.00;99.90;;;;;;5018896;28;20038;-70
2021/06/14 06:20:35;;;;;;;19.30;11.90;;;17.10;99.90;;;;;;5016129;28;20360;-70
2021/06/14 06:23:01;;;;;;;23.50;13.00;;;17.10;99.90;;;;;;5015790;28;20022;-70
2021/06/14 06:25:28;;;;;;;26.73;13.43;;;17.10;99.90;;;;;;5017189;28;20104;-70
2021/06/14 06:27:54;;;;;;;27.88;12.25;;;17.20;99.90;;;;;;5025507;28;20030;-70
2021/06/14 06:30:22;;;;;;;23.08;14.77;;;17.30;99.90;;;;;;5017166;28;20053;-70
2021/06/14 06:32:48;;;;;;;24.27;15.88;;;17.30;99.90;;;;;;5019090;28;20440;-70
2021/06/14 06:35:14;;;;;;;26.70;15.65;;;17.50;99.90;;;;;;5014647;28;20414;-70
2021/06/14 06:37:40;;;;;;;28.15;14.75;;;17.60;99.90;;;;;;5014894;28;20394;-70
2021/06/14 06:40:07;;;;;;;27.73;15.88;;;17.80;99.90;;;;;;5020914;28;20029;-70
2021/06/14 06:42:34;;;;;;;30.40;16.55;;;18.00;99.90;;;;;;5018037;28;20061;-70
2021/06/14 06:44:59;;;;;;;21.42;12.45;;;18.10;99.90;;;;;;5014667;28;20029;-70
2021/06/14 06:47:25;;;;;;;26.00;15.30;;;18.20;99.90;;;;;;5016318;28;20037;-69
2021/06/14 06:49:50;;;;;;;22.15;15.02;;;18.50;99.90;;;;;;5016841;28;20402;-70
2021/06/14 06:52:16;;;;;;;23.48;13.68;;;18.70;99.90;;;;;;5017447;28;20057;-70
2021/06/14 06:54:42;;;;;;;23.77;14.25;;;18.80;99.90;;;;;;5017453;28;20026;-69
2021/06/14 06:57:07;;;;;;;24.08;13.50;;;18.90;99.90;;;;;;5013879;28;20029;-70
2021/06/14 06:59:33;;;;;;;20.23;12.40;;;19.10;99.90;;;;;;5018154;28;20030;-70
2021/06/14 07:01:59;;;;;;;22.63;14.43;;;19.30;99.90;;;;;;4999419;28;20025;-69
2021/06/14 07:04:24;;;;;;;25.00;13.70;;;19.40;99.90;;;;;;5014992;28;20520;-70
2021/06/14 07:06:51;;;;;;;16.58;13.25;;;19.60;99.90;;;;;;5012025;28;20072;-69
2021/06/14 07:09:17;;;;;;;25.70;13.63;;;19.70;99.90;;;;;;5011015;28;20125;-70
2021/06/14 07:11:43;;;;;;;18.00;11.75;;;19.90;99.90;;;;;;5014499;28;20096;-70
2021/06/14 07:14:09;;;;;;;22.15;11.68;;;20.00;99.90;;;;;;5017235;28;20030;-70
2021/06/14 07:16:35;;;;;;;21.90;11.98;;;20.10;99.90;;;;;;5013624;28;20041;-69
2021/06/14 07:19:01;;;;;;;18.88;10.88;;;20.20;99.90;;;;;;5014988;28;20057;-69
2021/06/14 07:21:27;;;;;;;16.58;10.15;;;20.40;98.80;;;;;;5018535;28;20089;-68
2021/06/14 07:23:53;;;;;;;13.75;10.40;;;20.60;99.90;;;;;;5008516;28;20046;-68
2021/06/14 07:26:20;;;;;;;15.70;9.38;;;20.70;99.90;;;;;;5010048;28;20034;-69
2021/06/14 07:28:46;;;;;;;14.82;8.80;;;20.80;99.90;;;;;;5015598;28;20061;-68
2021/06/14 07:31:12;;;;;;;11.38;6.53;;;21.00;99.70;;;;;;5015797;28;20025;-71
2021/06/14 07:33:39;;;;;;;10.30;5.97;;;21.20;98.60;;;;;;5009990;28;20084;-68
2021/06/14 07:36:07;;;;;;;7.82;4.97;;;21.30;97.20;;;;;;5014468;28;20148;-68
2021/06/14 07:38:33;;;;;;;9.65;4.80;;;21.50;95.40;;;;;;5013565;28;20495;-68
2021/06/14 07:40:58;;;;;;;6.57;4.88;;;21.60;96.90;;;;;;5011106;28;20034;-68
2021/06/14 07:43:24;;;;;;;9.05;5.18;;;21.70;97.00;;;;;;5004011;28;20221;-69
2021/06/14 07:45:50;;;;;;;7.93;5.78;;;21.90;95.60;;;;;;5015585;28;20069;-69
2021/06/14 07:48:16;;;;;;;7.00;4.43;;;21.90;95.30;;;;;;5021555;28;20027;-69
2021/06/14 07:50:44;;;;;;;11.48;5.07;;;22.10;96.10;;;;;;5017115;28;20033;-69
2021/06/14 07:53:10;;;;;;;8.65;4.53;;;22.10;95.90;;;;;;5015372;28;20030;-68
2021/06/14 07:55:36;;;;;;;6.82;4.57;;;22.20;95.00;;;;;;5011770;28;20087;-69
2021/06/14 07:58:03;;;;;;;13.48;6.15;;;22.30;95.50;;;;;;5017954;28;20124;-74
2021/06/14 08:00:28;;;;;;;10.02;5.43;;;22.60;94.00;;;;;;5013950;28;20053;-68
2021/06/14 08:02:55;;;;;;;10.30;6.18;;;22.60;94.40;;;;;;5016268;28;20060;-70
2021/06/14 08:05:21;;;;;;;19.50;6.32;;;22.80;94.80;;;;;;5022407;28;20479;-69
2021/06/14 08:07:47;;;;;;;13.18;7.15;;;22.90;93.70;;;;;;5017716;28;20550;-69
2021/06/14 08:10:16;;;;;;;13.25;5.38;;;22.90;95.10;;;;;;5019744;28;20065;-69
2021/06/14 08:12:45;;;;;;;11.23;5.38;;;23.00;95.60;;;;;;5019692;28;20022;-69
2021/06/14 08:15:13;;;;;;;11.25;5.65;;;23.10;93.50;;;;;;5016099;28;20662;-69
2021/06/14 08:17:38;;;;;;;8.18;5.00;;;23.20;92.90;;;;;;5020157;28;20021;-69
2021/06/14 08:20:22;;;;;;;8.50;5.45;;;23.30;93.70;;;;;;5018025;28;20433;-69
2021/06/14 08:25:33;;;;;;;8.43;4.93;;;23.40;93.50;;;;;;5015961;28;20176;-69
2021/06/14 08:27:59;;;;;;;8.18;4.85;;;23.40;93.60;;;;;;5016244;28;20025;-83
2021/06/14 08:30:26;;;;;;;10.55;4.90;;;23.50;93.40;;;;;;5015983;28;20076;-82
2021/06/14 08:32:56;;;;;;;9.75;5.00;;;23.60;95.00;;;;;;5014650;28;20030;-77
2021/06/14 08:35:25;;;;;;;8.98;3.83;;;23.70;94.00;;;;;;5015569;28;20502;-69
2021/06/14 08:37:53;;;;;;;8.48;4.72;;;23.70;93.00;;;;;;5020260;28;20042;-68
2021/06/14 08:40:24;;;;;;;9.75;4.40;;;23.80;92.60;;;;;;5019686;28;20029;-69
2021/06/14 08:42:51;;;;;;;7.57;4.28;;;24.00;92.70;;;;;;5023372;28;20029;-69
2021/06/14 08:45:18;;;;;;;10.38;4.55;;;24.20;93.20;;;;;;5017244;28;20494;-69
2021/06/14 08:47:48;;;;;;;7.50;4.25;;;24.20;92.10;;;;;;5026740;28;20390;-68
2021/06/14 08:50:19;;;;;;;6.75;4.63;;;24.10;92.70;;;;;;5018812;28;20034;-69
2021/06/14 08:52:51;;;;;;;7.18;4.85;;;24.30;92.30;;;;;;5016757;28;20034;-69
2021/06/14 08:55:17;;;;;;;7.78;4.82;;;24.40;91.90;;;;;;5014395;28;20057;-69
2021/06/14 08:57:44;;;;;;;8.45;4.63;;;24.50;91.30;;;;;;5016210;28;20533;-69
2021/06/14 09:00:13;;;;;;;9.95;4.82;;;24.70;91.10;;;;;;5019894;28;20044;-69
2021/06/14 09:02:39;;;;;;;8.15;4.30;;;24.70;91.90;;;;;;5019062;28;20398;-71
2021/06/14 09:05:06;;;;;;;8.43;4.28;;;24.90;91.80;;;;;;5020075;28;20021;-73
2021/06/14 09:07:32;;;;;;;7.47;4.05;;;25.00;90.40;;;;;;5018888;28;20104;-68
2021/06/14 09:09:58;;;;;;;6.30;4.20;;;25.10;91.80;;;;;;5019972;28;20501;-68
2021/06/14 09:12:24;;;;;;;5.70;3.88;;;25.40;91.50;;;;;;5016501;28;20030;-69
2021/06/14 09:14:49;;;;;;;10.32;3.88;;;25.50;88.70;;;;;;5017172;28;20411;-69
2021/06/14 09:17:17;;;;;;;6.10;4.47;;;25.60;88.10;;;;;;5017450;28;20076;-69
2021/06/14 09:19:52;;;;;;;3.85;3.45;;;25.60;88.60;;;;;;5019012;28;20030;-69
2021/06/14 09:22:22;;;;;;;7.20;4.05;;;25.70;86.00;;;;;;5021649;28;20138;-69
2021/06/14 09:25:09;;;;;;;4.97;3.88;;;26.00;87.90;;;;;;5023552;28;20039;-69
2021/06/14 09:27:47;;;;;;;5.60;4.30;;;26.10;89.20;;;;;;5023487;28;20160;-69
2021/06/14 09:30:14;;;;;;;4.55;3.80;;;26.20;90.30;;;;;;5020253;28;20040;-68
2021/06/14 09:32:49;;;;;;;7.68;4.28;;;26.40;89.90;;;;;;5020388;28;20034;-68
2021/06/14 09:35:16;;;;;;;5.13;3.67;;;26.50;85.40;;;;;;5019025;28;20033;-69
2021/06/14 09:37:42;;;;;;;8.38;3.97;;;26.50;87.60;;;;;;5018560;28;20052;-68
2021/06/14 09:40:08;;;;;;;6.82;3.97;;;26.60;85.70;;;;;;5018976;28;20410;-68
2021/06/14 09:42:39;;;;;;;7.47;3.65;;;26.90;88.60;;;;;;5012991;28;20026;-69
2021/06/14 09:45:07;;;;;;;5.78;3.30;;;27.10;86.90;;;;;;5013697;28;20084;-68
2021/06/14 09:47:32;;;;;;;6.55;3.42;;;27.20;86.70;;;;;;5014585;28;20396;-68
2021/06/14 09:50:08;;;;;;;8.85;3.60;;;27.40;81.50;;;;;;5016006;28;20040;-68
2021/06/14 09:52:34;;;;;;;5.15;3.45;;;27.50;82.80;;;;;;5016587;28;20065;-68
2021/06/14 09:55:20;;;;;;;5.03;4.15;;;27.60;80.90;;;;;;5015788;28;20066;-69
2021/06/14 09:57:45;;;;;;;7.47;3.95;;;27.60;80.00;;;;;;5018458;28;20070;-69
2021/06/14 10:00:13;;;;;;;6.60;4.20;;;27.70;82.60;;;;;;5016904;28;20038;-68
2021/06/14 10:02:39;;;;;;;6.85;4.07;;;27.80;80.70;;;;;;5017013;28;20076;-69
2021/06/14 10:05:19;;;;;;;7.00;3.85;;;27.90;82.80;;;;;;5013586;28;20438;-69
2021/06/14 10:07:47;;;;;;;6.28;4.50;;;27.90;83.00;;;;;;5023867;28;20112;-68
2021/06/14 10:10:26;;;;;;;6.47;4.03;;;28.00;81.90;;;;;;5017734;28;20096;-68
2021/06/14 10:12:56;;;;;;;4.70;3.80;;;28.00;81.90;;;;;;5013628;28;20029;-68
2021/06/14 10:15:33;;;;;;;4.55;3.75;;;28.20;81.10;;;;;;5018351;28;20025;-68
2021/06/14 10:17:59;;;;;;;7.95;4.15;;;28.20;80.10;;;;;;5012709;28;20026;-69
2021/06/14 10:20:27;;;;;;;5.63;4.43;;;28.30;80.80;;;;;;5015648;28;20057;-70
2021/06/14 10:22:55;;;;;;;9.52;4.88;;;28.40;81.60;;;;;;5017546;28;20393;-69
2021/06/14 10:25:22;;;;;;;9.05;4.38;;;28.60;79.90;;;;;;5016591;28;20381;-69
2021/06/14 10:27:48;;;;;;;5.15;4.13;;;28.30;80.00;;;;;;5013051;28;20062;-68
2021/06/14 10:30:17;;;;;;;8.27;4.20;;;28.10;83.00;;;;;;5018800;28;20052;-68
2021/06/14 10:32:44;;;;;;;6.50;3.95;;;28.40;83.90;;;;;;5015622;28;20029;-68
2021/06/14 10:35:12;;;;;;;5.40;4.18;;;28.70;80.70;;;;;;5014897;28;20052;-68
2021/06/14 10:37:43;;;;;;;6.95;4.65;;;28.90;84.80;;;;;;5018246;28;20032;-68
2021/06/14 10:40:11;;;;;;;6.10;4.25;;;29.10;84.00;;;;;;5017839;28;20053;-68
2021/06/14 10:42:38;;;;;;;6.20;4.10;;;28.90;81.40;;;;;;5020194;28;20083;-68
2021/06/14 10:45:04;;;;;;;6.53;3.75;;;29.00;77.80;;;;;;5011259;28;20034;-68
2021/06/14 10:47:30;;;;;;;6.65;3.88;;;29.10;79.00;;;;;;5017090;28;20104;-68
2021/06/14 10:49:56;;;;;;;10.88;4.00;;;29.20;78.10;;;;;;5013745;28;20117;-69
2021/06/14 10:52:22;;;;;;;5.05;3.50;;;29.10;79.60;;;;;;5013994;28;20040;-68
2021/06/14 10:54:48;;;;;;;7.53;3.85;;;29.30;78.50;;;;;;5016237;28;20109;-68
2021/06/14 10:57:14;;;;;;;6.32;4.13;;;29.40;79.20;;;;;;5014517;28;20064;-68
2021/06/14 10:59:45;;;;;;;5.60;3.85;;;29.50;77.50;;;;;;5014178;28;20057;-68
2021/06/14 11:02:13;;;;;;;5.30;3.63;;;29.50;76.90;;;;;;5015023;28;20030;-68
2021/06/14 11:04:40;;;;;;;10.00;3.72;;;29.50;77.40;;;;;;5012844;28;20095;-68
2021/06/14 11:07:06;;;;;;;5.40;3.80;;;29.50;75.80;;;;;;5015719;28;20022;-68
2021/06/14 11:09:42;;;;;;;6.90;3.70;;;29.40;78.40;;;;;;5014318;28;20037;-68
2021/06/14 11:12:11;;;;;;;6.70;3.78;;;29.40;77.60;;;;;;5013815;28;20030;-68
2021/06/14 11:14:43;;;;;;;3.95;3.55;;;29.60;79.50;;;;;;5014968;28;20100;-68
2021/06/14 11:17:32;;;;;;;6.43;3.80;;;29.80;75.40;;;;;;5016276;28;20060;-68
2021/06/14 11:20:00;;;;;;;3.97;3.55;;;30.00;77.70;;;;;;5016842;28;20292;-68
2021/06/14 11:22:47;;;;;;;7.50;3.58;;;30.10;76.20;;;;;;5023392;28;20030;-69
2021/06/14 11:25:24;;;;;;;5.22;3.45;;;30.10;75.40;;;;;;5015144;28;20030;-69
2021/06/14 11:27:50;;;;;;;6.68;3.72;;;30.20;74.60;;;;;;5020041;28;20022;-68
2021/06/14 11:30:28;;;;;;;5.97;3.60;;;30.10;79.70;;;;;;5020605;28;20034;-68
2021/06/14 11:32:53;;;;;;;4.53;3.33;;;30.00;75.80;;;;;;5020484;28;20018;-68
2021/06/14 11:35:20;;;;;;;4.53;3.40;;;30.10;74.60;;;;;;5026442;28;20029;-68
2021/06/14 11:37:48;;;;;;;7.80;3.65;;;30.20;75.50;;;;;;5025586;28;20026;-68
2021/06/14 11:40:16;;;;;;;7.18;4.10;;;30.40;74.80;;;;;;5026285;28;20034;-68
2021/06/14 11:42:51;;;;;;;6.22;3.80;;;30.50;78.20;;;;;;5023648;28;20053;-69
2021/06/14 11:45:28;;;;;;;5.60;3.28;;;30.00;75.20;;;;;;5023641;28;20084;-68
2021/06/14 11:47:55;;;;;;;8.38;3.85;;;30.40;76.70;;;;;;5021626;28;20378;-68
2021/06/14 11:50:26;;;;;;;4.80;3.10;;;30.50;73.20;;;;;;5025284;28;20080;-69
2021/06/14 11:52:57;;;;;;;5.87;3.73;;;30.60;72.80;;;;;;5017714;28;20017;-68
2021/06/14 11:55:22;;;;;;;3.38;3.05;;;30.80;71.90;;;;;;5024710;28;20292;-68
2021/06/14 11:57:56;;;;;;;5.95;3.55;;;30.70;70.40;;;;;;5020445;28;20034;-68
2021/06/14 12:00:46;;;;;;;4.95;3.72;;;30.70;73.10;;;;;;5024150;28;20519;-68
2021/06/14 12:03:18;;;;;;;6.65;4.15;;;30.90;74.80;;;;;;5010187;28;20025;-68
2021/06/14 12:05:43;;;;;;;6.53;4.22;;;31.00;77.20;;;;;;5016484;28;20087;-69
2021/06/14 12:08:10;;;;;;;9.65;4.38;;;31.00;72.00;;;;;;5018410;28;20565;-68
2021/06/14 12:10:37;;;;;;;6.30;4.05;;;31.10;72.50;;;;;;5021503;28;20172;-68
2021/06/14 12:13:10;;;;;;;5.80;4.50;;;31.00;73.80;;;;;;5018766;28;20022;-68
2021/06/14 12:15:38;;;;;;;9.13;3.97;;;31.10;72.50;;;;;;5023455;28;20474;-69
2021/06/14 12:18:04;;;;;;;4.93;4.05;;;31.00;71.10;;;;;;5021045;28;20483;-68
2021/06/14 12:20:36;;;;;;;6.13;3.40;;;30.90;72.30;;;;;;5016418;28;20049;-68
2021/06/14 12:23:10;;;;;;;7.35;3.33;;;31.00;69.70;;;;;;5017760;28;20028;-68
2021/06/14 12:25:41;;;;;;;8.50;4.25;;;31.10;70.20;;;;;;5013882;28;20033;-69
2021/06/14 12:28:09;;;;;;;6.28;4.75;;;31.30;72.70;;;;;;5023253;28;20040;-68
2021/06/14 12:30:35;;;;;;;7.80;4.75;;;31.40;73.20;;;;;;5022754;28;20045;-69
2021/06/14 12:33:02;;;;;;;7.00;3.58;;;31.20;74.60;;;;;;5020769;28;20033;-69
2021/06/14 12:35:28;;;;;;;6.05;3.63;;;31.20;71.60;;;;;;5020624;28;20439;-69
2021/06/14 12:37:54;;;;;;;5.53;3.45;;;31.40;72.10;;;;;;5015749;28;20537;-68
2021/06/14 12:40:22;;;;;;;5.25;3.50;;;31.30;70.70;;;;;;5020673;28;20482;-68
2021/06/14 12:43:01;;;;;;;6.80;3.60;;;31.40;72.30;;;;;;5017009;28;20034;-68